sensor_id;sensor_type;location;lat;lon;timestamp;temperature;humidity
10419;DHT22;5256;48.728;9.140;2023-12-20T00:01:47;5.30;99.90
10419;DHT22;5256;48.728;9.140;2023-12-20T00:04:13;5.20;99.90
10419;DHT22;5256;48.728;9.140;2023-12-20T00:06:38;5.30;99.90
10419;DHT22;5256;48.728;9.140;2023-12-20T00:09:04;5.30;99.90
10419;DHT22;5256;48.728;9.140;2023-12-20T00:11:29;5.30;99.90
10419;DHT22;5256;48.728;9.140;2023-12-20T00:13:55;5.30;99.90
10419;DHT22;5256;48.728;9.140;2023-12-20T00:16:20;5.30;99.90
10419;DHT22;5256;48.728;9.140;2023-12-20T00:18:46;5.30;99.90
10419;DHT22;5256;48.728;9.140;2023-12-20T00:21:11;5.30;99.90
10419;DHT22;5256;48.728;9.140;2023-12-20T00:23:37;5.30;99.90
10419;DHT22;5256;48.728;9.140;2023-12-20T00:26:03;5.30;99.90
10419;DHT22;5256;48.728;9.140;2023-12-20T00:28:28;5.30;99.90
10419;DHT22;5256;48.728;9.140;2023-12-20T00:30:54;5.20;99.90
10419;DHT22;5256;48.728;9.140;2023-12-20T00:33:19;5.20;99.90
10419;DHT22;5256;48.728;9.140;2023-12-20T00:35:45;5.20;99.90
10419;DHT22;5256;48.728;9.140;2023-12-20T00:38:10;5.20;99.90
10419;DHT22;5256;48.728;9.140;2023-12-20T00:40:37;5.20;99.90
10419;DHT22;5256;48.728;9.140;2023-12-20T00:43:02;5.10;99.90
10419;DHT22;5256;48.728;9.140;2023-12-20T00:45:28;5.10;99.90
10419;DHT22;5256;48.728;9.140;2023-12-20T00:47:54;5.00;99.90
10419;DHT22;5256;48.728;9.140;2023-12-20T00:50:19;5.00;99.90
10419;DHT22;5256;48.728;9.140;2023-12-20T00:52:47;4.90;99.90
10419;DHT22;5256;48.728;9.140;2023-12-20T00:55:13;4.90;99.90
10419;DHT22;5256;48.728;9.140;2023-12-20T00:57:41;4.90;99.90
10419;DHT22;5256;48.728;9.140;2023-12-20T01:00:07;4.80;99.90
10419;DHT22;5256;48.728;9.140;2023-12-20T01:02:35;4.80;99.90
10419;DHT22;5256;48.728;9.140;2023-12-20T01:05:00;4.80;99.90
10419;DHT22;5256;48.728;9.140;2023-12-20T01:07:26;4.80;99.90
10419;DHT22;5256;48.728;9.140;2023-12-20T01:09:51;4.70;99.90
10419;DHT22;5256;48.728;9.140;2023-12-20T01:12:17;4.80;99.90
10419;DHT22;5256;48.728;9.140;2023-12-20T01:14:42;4.70;99.90
10419;DHT22;5256;48.728;9.140;2023-12-20T01:17:08;4.70;99.90
10419;DHT22;5256;48.728;9.140;2023-12-20T01:19:33;4.70;99.90
10419;DHT22;5256;48.728;9.140;2023-12-20T01:21:59;4.70;99.90
10419;DHT22;5256;48.728;9.140;2023-12-20T01:24:24;4.70;99.90
10419;DHT22;5256;48.728;9.140;2023-12-20T01:26:50;4.70;99.90
10419;DHT22;5256;48.728;9.140;2023-12-20T01:29:15;4.70;99.90
10419;DHT22;5256;48.728;9.140;2023-12-20T01:31:41;4.60;99.90
10419;DHT22;5256;48.728;9.140;2023-12-20T01:34:07;4.70;99.90
10419;DHT22;5256;48.728;9.140;2023-12-20T01:36:32;4.60;99.90
10419;DHT22;5256;48.728;9.140;2023-12-20T01:38:58;4.60;99.90
10419;DHT22;5256;48.728;9.140;2023-12-20T01:41:23;4.60;99.90
10419;DHT22;5256;48.728;9.140;2023-12-20T01:43:49;4.60;99.90
10419;DHT22;5256;48.728;9.140;2023-12-20T01:46:15;4.60;99.90
10419;DHT22;5256;48.728;9.140;2023-12-20T01:48:41;4.60;99.90
10419;DHT22;5256;48.728;9.140;2023-12-20T01:51:07;4.60;99.90
10419;DHT22;5256;48.728;9.140;2023-12-20T01:53:33;4.50;99.90
10419;DHT22;5256;48.728;9.140;2023-12-20T01:55:59;4.60;99.90
10419;DHT22;5256;48.728;9.140;2023-12-20T01:58:25;4.60;99.90
10419;DHT22;5256;48.728;9.140;2023-12-20T02:00:51;4.60;99.90
10419;DHT22;5256;48.728;9.140;2023-12-20T02:03:17;4.60;99.90
10419;DHT22;5256;48.728;9.140;2023-12-20T02:05:44;4.70;99.90
10419;DHT22;5256;48.728;9.140;2023-12-20T02:08:10;4.60;99.90
10419;DHT22;5256;48.728;9.140;2023-12-20T02:10:36;4.70;99.90
10419;DHT22;5256;48.728;9.140;2023-12-20T02:13:03;4.70;99.90
10419;DHT22;5256;48.728;9.140;2023-12-20T02:15:29;4.70;99.90
10419;DHT22;5256;48.728;9.140;2023-12-20T02:17:55;4.70;99.90
10419;DHT22;5256;48.728;9.140;2023-12-20T02:20:21;4.70;99.90
10419;DHT22;5256;48.728;9.140;2023-12-20T02:22:46;4.70;99.90
10419;DHT22;5256;48.728;9.140;2023-12-20T02:25:12;4.70;99.90
10419;DHT22;5256;48.728;9.140;2023-12-20T02:27:38;4.70;99.90
10419;DHT22;5256;48.728;9.140;2023-12-20T02:30:05;4.70;99.90
10419;DHT22;5256;48.728;9.140;2023-12-20T02:32:31;4.80;99.90
10419;DHT22;5256;48.728;9.140;2023-12-20T02:34:57;4.80;99.90
10419;DHT22;5256;48.728;9.140;2023-12-20T02:37:23;4.70;99.90
10419;DHT22;5256;48.728;9.140;2023-12-20T02:39:48;4.80;99.90
10419;DHT22;5256;48.728;9.140;2023-12-20T02:42:14;4.80;99.90
10419;DHT22;5256;48.728;9.140;2023-12-20T02:44:39;4.80;99.90
10419;DHT22;5256;48.728;9.140;2023-12-20T02:47:05;4.80;99.90
10419;DHT22;5256;48.728;9.140;2023-12-20T02:49:30;4.80;99.90
10419;DHT22;5256;48.728;9.140;2023-12-20T02:51:56;4.70;99.90
10419;DHT22;5256;48.728;9.140;2023-12-20T02:54:21;4.70;99.90
10419;DHT22;5256;48.728;9.140;2023-12-20T02:56:47;4.80;99.90
10419;DHT22;5256;48.728;9.140;2023-12-20T02:59:13;4.70;99.90
10419;DHT22;5256;48.728;9.140;2023-12-20T03:01:45;4.70;99.90
10419;DHT22;5256;48.728;9.140;2023-12-20T03:04:11;4.70;99.90
10419;DHT22;5256;48.728;9.140;2023-12-20T03:06:37;4.70;99.90
10419;DHT22;5256;48.728;9.140;2023-12-20T03:09:03;4.70;99.90
10419;DHT22;5256;48.728;9.140;2023-12-20T03:11:28;4.70;99.90
10419;DHT22;5256;48.728;9.140;2023-12-20T03:13:54;4.70;99.90
10419;DHT22;5256;48.728;9.140;2023-12-20T03:16:20;4.80;99.90
10419;DHT22;5256;48.728;9.140;2023-12-20T03:18:46;4.80;99.90
10419;DHT22;5256;48.728;9.140;2023-12-20T03:21:11;4.80;99.90
10419;DHT22;5256;48.728;9.140;2023-12-20T03:23:37;4.70;99.90
10419;DHT22;5256;48.728;9.140;2023-12-20T03:26:03;4.70;99.90
10419;DHT22;5256;48.728;9.140;2023-12-20T03:28:29;4.70;99.90
10419;DHT22;5256;48.728;9.140;2023-12-20T03:30:54;4.70;99.90
10419;DHT22;5256;48.728;9.140;2023-12-20T03:33:20;4.70;99.90
10419;DHT22;5256;48.728;9.140;2023-12-20T03:35:45;4.70;99.90
10419;DHT22;5256;48.728;9.140;2023-12-20T03:38:11;4.70;99.90
10419;DHT22;5256;48.728;9.140;2023-12-20T03:40:37;4.70;99.90
10419;DHT22;5256;48.728;9.140;2023-12-20T03:43:02;4.70;99.90
10419;DHT22;5256;48.728;9.140;2023-12-20T03:45:28;4.70;99.90
10419;DHT22;5256;48.728;9.140;2023-12-20T03:47:53;4.60;99.90
10419;DHT22;5256;48.728;9.140;2023-12-20T03:50:22;4.70;99.90
10419;DHT22;5256;48.728;9.140;2023-12-20T03:52:47;4.60;99.90
10419;DHT22;5256;48.728;9.140;2023-12-20T03:55:13;4.60;99.90
10419;DHT22;5256;48.728;9.140;2023-12-20T03:57:39;4.60;99.90
10419;DHT22;5256;48.728;9.140;2023-12-20T04:00:05;4.60;99.90
10419;DHT22;5256;48.728;9.140;2023-12-20T04:02:39;4.60;99.90
10419;DHT22;5256;48.728;9.140;2023-12-20T04:05:05;4.60;99.90
10419;DHT22;5256;48.728;9.140;2023-12-20T04:07:31;4.50;99.90
10419;DHT22;5256;48.728;9.140;2023-12-20T04:09:57;4.50;99.90
10419;DHT22;5256;48.728;9.140;2023-12-20T04:12:22;4.50;99.90
10419;DHT22;5256;48.728;9.140;2023-12-20T04:14:48;4.40;99.90
10419;DHT22;5256;48.728;9.140;2023-12-20T04:17:15;4.50;99.90
10419;DHT22;5256;48.728;9.140;2023-12-20T04:19:41;4.40;99.90
10419;DHT22;5256;48.728;9.140;2023-12-20T04:22:07;4.40;99.90
10419;DHT22;5256;48.728;9.140;2023-12-20T04:24:32;4.40;99.90
10419;DHT22;5256;48.728;9.140;2023-12-20T04:26:58;4.40;99.90
10419;DHT22;5256;48.728;9.140;2023-12-20T04:29:23;4.40;99.90
10419;DHT22;5256;48.728;9.140;2023-12-20T04:31:49;4.40;99.90
10419;DHT22;5256;48.728;9.140;2023-12-20T04:34:16;4.40;99.90
10419;DHT22;5256;48.728;9.140;2023-12-20T04:36:42;4.30;99.90
10419;DHT22;5256;48.728;9.140;2023-12-20T04:39:08;4.30;99.90
10419;DHT22;5256;48.728;9.140;2023-12-20T04:41:33;4.30;99.90
10419;DHT22;5256;48.728;9.140;2023-12-20T04:43:59;4.30;99.90
10419;DHT22;5256;48.728;9.140;2023-12-20T04:46:26;4.30;99.90
10419;DHT22;5256;48.728;9.140;2023-12-20T04:48:51;4.30;99.90
10419;DHT22;5256;48.728;9.140;2023-12-20T04:51:17;4.30;99.90
10419;DHT22;5256;48.728;9.140;2023-12-20T04:53:42;4.30;99.90
10419;DHT22;5256;48.728;9.140;2023-12-20T04:56:08;4.30;99.90
10419;DHT22;5256;48.728;9.140;2023-12-20T04:58:33;4.30;99.90
10419;DHT22;5256;48.728;9.140;2023-12-20T05:00:59;4.30;99.90
10419;DHT22;5256;48.728;9.140;2023-12-20T05:03:24;4.30;99.90
10419;DHT22;5256;48.728;9.140;2023-12-20T05:05:50;4.30;99.90
10419;DHT22;5256;48.728;9.140;2023-12-20T05:08:16;4.30;99.90
10419;DHT22;5256;48.728;9.140;2023-12-20T05:10:41;4.30;99.90
10419;DHT22;5256;48.728;9.140;2023-12-20T05:13:07;4.30;99.90
10419;DHT22;5256;48.728;9.140;2023-12-20T05:15:33;4.30;99.90
10419;DHT22;5256;48.728;9.140;2023-12-20T05:17:58;4.30;99.90
10419;DHT22;5256;48.728;9.140;2023-12-20T05:20:24;4.30;99.90
10419;DHT22;5256;48.728;9.140;2023-12-20T05:22:50;4.30;99.90
10419;DHT22;5256;48.728;9.140;2023-12-20T05:25:15;4.30;99.90
10419;DHT22;5256;48.728;9.140;2023-12-20T05:27:41;4.30;99.90
10419;DHT22;5256;48.728;9.140;2023-12-20T05:30:07;4.30;99.90
10419;DHT22;5256;48.728;9.140;2023-12-20T05:32:32;4.30;99.90
10419;DHT22;5256;48.728;9.140;2023-12-20T05:34:58;4.30;99.90
10419;DHT22;5256;48.728;9.140;2023-12-20T05:37:23;4.30;99.90
10419;DHT22;5256;48.728;9.140;2023-12-20T05:39:49;4.30;99.90
10419;DHT22;5256;48.728;9.140;2023-12-20T05:42:14;4.30;99.90
10419;DHT22;5256;48.728;9.140;2023-12-20T05:44:40;4.30;99.90
10419;DHT22;5256;48.728;9.140;2023-12-20T05:47:06;4.30;99.90
10419;DHT22;5256;48.728;9.140;2023-12-20T05:49:31;4.30;99.90
10419;DHT22;5256;48.728;9.140;2023-12-20T05:51:57;4.30;99.90
10419;DHT22;5256;48.728;9.140;2023-12-20T05:54:22;4.30;99.90
10419;DHT22;5256;48.728;9.140;2023-12-20T05:56:48;4.30;99.90
10419;DHT22;5256;48.728;9.140;2023-12-20T05:59:14;4.30;99.90
10419;DHT22;5256;48.728;9.140;2023-12-20T06:01:39;4.30;99.90
10419;DHT22;5256;48.728;9.140;2023-12-20T06:04:05;4.30;99.90
10419;DHT22;5256;48.728;9.140;2023-12-20T06:06:30;4.30;99.90
10419;DHT22;5256;48.728;9.140;2023-12-20T06:08:56;4.20;99.90
10419;DHT22;5256;48.728;9.140;2023-12-20T06:11:22;4.20;99.90
10419;DHT22;5256;48.728;9.140;2023-12-20T06:13:47;4.20;99.90
10419;DHT22;5256;48.728;9.140;2023-12-20T06:16:14;4.20;99.90
10419;DHT22;5256;48.728;9.140;2023-12-20T06:18:40;4.20;99.90
10419;DHT22;5256;48.728;9.140;2023-12-20T06:21:06;4.20;99.90
10419;DHT22;5256;48.728;9.140;2023-12-20T06:23:32;4.20;99.90
10419;DHT22;5256;48.728;9.140;2023-12-20T06:25:58;4.20;99.90
10419;DHT22;5256;48.728;9.140;2023-12-20T06:28:23;4.20;99.90
10419;DHT22;5256;48.728;9.140;2023-12-20T06:30:49;4.20;99.90
10419;DHT22;5256;48.728;9.140;2023-12-20T06:33:15;4.20;99.90
10419;DHT22;5256;48.728;9.140;2023-12-20T06:35:41;4.30;99.90
10419;DHT22;5256;48.728;9.140;2023-12-20T06:38:06;4.30;99.90
10419;DHT22;5256;48.728;9.140;2023-12-20T06:40:32;4.30;99.90
10419;DHT22;5256;48.728;9.140;2023-12-20T06:42:57;4.30;99.90
10419;DHT22;5256;48.728;9.140;2023-12-20T06:45:24;4.30;99.90
10419;DHT22;5256;48.728;9.140;2023-12-20T06:47:50;4.30;99.90
10419;DHT22;5256;48.728;9.140;2023-12-20T06:50:15;4.30;99.90
10419;DHT22;5256;48.728;9.140;2023-12-20T06:52:41;4.30;99.90
10419;DHT22;5256;48.728;9.140;2023-12-20T06:55:07;4.30;99.90
10419;DHT22;5256;48.728;9.140;2023-12-20T06:57:33;4.30;99.90
10419;DHT22;5256;48.728;9.140;2023-12-20T06:59:58;4.30;99.90
10419;DHT22;5256;48.728;9.140;2023-12-20T07:02:24;4.30;99.90
10419;DHT22;5256;48.728;9.140;2023-12-20T07:04:49;4.40;99.90
10419;DHT22;5256;48.728;9.140;2023-12-20T07:07:15;4.40;99.90
10419;DHT22;5256;48.728;9.140;2023-12-20T07:09:40;4.40;99.90
10419;DHT22;5256;48.728;9.140;2023-12-20T07:12:08;4.40;99.90
10419;DHT22;5256;48.728;9.140;2023-12-20T07:14:34;4.50;99.90
10419;DHT22;5256;48.728;9.140;2023-12-20T07:17:00;4.50;99.90
10419;DHT22;5256;48.728;9.140;2023-12-20T07:19:25;4.50;99.90
10419;DHT22;5256;48.728;9.140;2023-12-20T07:21:51;4.50;99.90
10419;DHT22;5256;48.728;9.140;2023-12-20T07:24:16;4.50;99.90
10419;DHT22;5256;48.728;9.140;2023-12-20T07:26:42;4.50;99.90
10419;DHT22;5256;48.728;9.140;2023-12-20T07:29:08;4.60;99.90
10419;DHT22;5256;48.728;9.140;2023-12-20T07:31:34;4.50;99.90
10419;DHT22;5256;48.728;9.140;2023-12-20T07:34:00;4.50;99.90
10419;DHT22;5256;48.728;9.140;2023-12-20T07:36:25;4.60;99.90
10419;DHT22;5256;48.728;9.140;2023-12-20T07:38:51;4.60;99.90
10419;DHT22;5256;48.728;9.140;2023-12-20T07:41:16;4.50;99.90
10419;DHT22;5256;48.728;9.140;2023-12-20T07:43:42;4.50;99.90
10419;DHT22;5256;48.728;9.140;2023-12-20T07:46:08;4.40;99.90
10419;DHT22;5256;48.728;9.140;2023-12-20T07:48:37;4.30;99.90
10419;DHT22;5256;48.728;9.140;2023-12-20T07:51:04;4.30;99.90
10419;DHT22;5256;48.728;9.140;2023-12-20T07:53:31;4.30;99.90
10419;DHT22;5256;48.728;9.140;2023-12-20T07:55:56;4.20;99.90
10419;DHT22;5256;48.728;9.140;2023-12-20T07:58:22;4.20;99.90
10419;DHT22;5256;48.728;9.140;2023-12-20T08:00:47;4.20;99.90
10419;DHT22;5256;48.728;9.140;2023-12-20T08:03:13;4.20;99.90
10419;DHT22;5256;48.728;9.140;2023-12-20T08:05:38;4.20;99.90
10419;DHT22;5256;48.728;9.140;2023-12-20T08:08:07;4.20;99.90
10419;DHT22;5256;48.728;9.140;2023-12-20T08:10:33;4.10;99.90
10419;DHT22;5256;48.728;9.140;2023-12-20T08:12:58;4.10;99.90
10419;DHT22;5256;48.728;9.140;2023-12-20T08:15:24;4.10;99.90
10419;DHT22;5256;48.728;9.140;2023-12-20T08:17:49;4.10;99.90
10419;DHT22;5256;48.728;9.140;2023-12-20T08:20:18;4.10;99.90
10419;DHT22;5256;48.728;9.140;2023-12-20T08:22:44;4.10;99.90
10419;DHT22;5256;48.728;9.140;2023-12-20T08:25:09;4.10;99.90
10419;DHT22;5256;48.728;9.140;2023-12-20T08:27:41;4.00;99.90
10419;DHT22;5256;48.728;9.140;2023-12-20T08:30:08;4.00;99.90
10419;DHT22;5256;48.728;9.140;2023-12-20T08:32:34;4.00;99.90
10419;DHT22;5256;48.728;9.140;2023-12-20T08:35:00;4.00;99.90
10419;DHT22;5256;48.728;9.140;2023-12-20T08:37:25;4.00;99.90
10419;DHT22;5256;48.728;9.140;2023-12-20T08:39:51;4.10;99.90
10419;DHT22;5256;48.728;9.140;2023-12-20T08:42:16;4.10;99.90
10419;DHT22;5256;48.728;9.140;2023-12-20T08:44:42;4.10;99.90
10419;DHT22;5256;48.728;9.140;2023-12-20T08:47:07;4.10;99.90
10419;DHT22;5256;48.728;9.140;2023-12-20T08:49:33;4.10;99.90
10419;DHT22;5256;48.728;9.140;2023-12-20T08:51:59;4.10;99.90
10419;DHT22;5256;48.728;9.140;2023-12-20T08:54:24;4.10;99.90
10419;DHT22;5256;48.728;9.140;2023-12-20T08:56:50;4.00;99.90
10419;DHT22;5256;48.728;9.140;2023-12-20T08:59:15;3.90;99.90
10419;DHT22;5256;48.728;9.140;2023-12-20T09:01:41;3.80;99.90
10419;DHT22;5256;48.728;9.140;2023-12-20T09:04:06;3.70;99.90
10419;DHT22;5256;48.728;9.140;2023-12-20T09:06:32;3.70;99.90
10419;DHT22;5256;48.728;9.140;2023-12-20T09:08:57;3.70;99.90
10419;DHT22;5256;48.728;9.140;2023-12-20T09:11:23;3.60;99.90
10419;DHT22;5256;48.728;9.140;2023-12-20T09:13:48;3.60;99.90
10419;DHT22;5256;48.728;9.140;2023-12-20T09:16:14;3.60;99.90
10419;DHT22;5256;48.728;9.140;2023-12-20T09:18:41;3.60;99.90
10419;DHT22;5256;48.728;9.140;2023-12-20T09:21:07;3.60;99.90
10419;DHT22;5256;48.728;9.140;2023-12-20T09:23:32;3.70;99.90
10419;DHT22;5256;48.728;9.140;2023-12-20T09:25:58;3.70;99.90
10419;DHT22;5256;48.728;9.140;2023-12-20T09:28:23;3.80;99.90
10419;DHT22;5256;48.728;9.140;2023-12-20T09:30:49;3.80;99.90
10419;DHT22;5256;48.728;9.140;2023-12-20T09:33:14;3.90;99.90
10419;DHT22;5256;48.728;9.140;2023-12-20T09:35:41;3.90;99.90
10419;DHT22;5256;48.728;9.140;2023-12-20T09:38:07;4.00;99.90
10419;DHT22;5256;48.728;9.140;2023-12-20T09:40:34;4.00;99.90
10419;DHT22;5256;48.728;9.140;2023-12-20T09:43:04;4.00;99.90
10419;DHT22;5256;48.728;9.140;2023-12-20T09:45:34;4.10;99.90
10419;DHT22;5256;48.728;9.140;2023-12-20T09:48:00;4.20;99.90
10419;DHT22;5256;48.728;9.140;2023-12-20T09:50:26;4.20;99.90
10419;DHT22;5256;48.728;9.140;2023-12-20T09:52:53;4.30;99.90
10419;DHT22;5256;48.728;9.140;2023-12-20T09:55:21;4.30;99.90
10419;DHT22;5256;48.728;9.140;2023-12-20T09:57:48;4.30;99.90
10419;DHT22;5256;48.728;9.140;2023-12-20T10:00:14;4.40;99.90
10419;DHT22;5256;48.728;9.140;2023-12-20T10:02:50;4.40;99.90
10419;DHT22;5256;48.728;9.140;2023-12-20T10:05:18;4.50;99.90
10419;DHT22;5256;48.728;9.140;2023-12-20T10:07:45;4.50;99.90
10419;DHT22;5256;48.728;9.140;2023-12-20T10:10:13;4.60;99.90
10419;DHT22;5256;48.728;9.140;2023-12-20T10:12:38;4.60;99.90
10419;DHT22;5256;48.728;9.140;2023-12-20T10:15:05;4.70;99.90
10419;DHT22;5256;48.728;9.140;2023-12-20T10:17:31;4.90;99.90
10419;DHT22;5256;48.728;9.140;2023-12-20T10:19:57;5.10;99.90
10419;DHT22;5256;48.728;9.140;2023-12-20T10:22:23;5.40;99.90
10419;DHT22;5256;48.728;9.140;2023-12-20T10:24:49;5.50;99.90
10419;DHT22;5256;48.728;9.140;2023-12-20T10:27:15;5.40;99.90
10419;DHT22;5256;48.728;9.140;2023-12-20T10:29:44;5.30;99.90
10419;DHT22;5256;48.728;9.140;2023-12-20T10:32:27;5.20;99.90
10419;DHT22;5256;48.728;9.140;2023-12-20T10:34:54;5.10;99.90
10419;DHT22;5256;48.728;9.140;2023-12-20T10:37:19;5.00;99.90
10419;DHT22;5256;48.728;9.140;2023-12-20T10:39:50;5.00;99.90
10419;DHT22;5256;48.728;9.140;2023-12-20T10:42:16;5.00;99.90
10419;DHT22;5256;48.728;9.140;2023-12-20T10:44:43;5.00;99.90
10419;DHT22;5256;48.728;9.140;2023-12-20T10:47:09;5.00;99.90
10419;DHT22;5256;48.728;9.140;2023-12-20T10:49:37;4.90;99.90
10419;DHT22;5256;48.728;9.140;2023-12-20T10:52:05;4.90;99.90
10419;DHT22;5256;48.728;9.140;2023-12-20T10:54:32;5.00;99.90
10419;DHT22;5256;48.728;9.140;2023-12-20T10:56:58;5.10;99.90
10419;DHT22;5256;48.728;9.140;2023-12-20T10:59:25;5.20;99.90
10419;DHT22;5256;48.728;9.140;2023-12-20T11:01:54;5.20;99.90
10419;DHT22;5256;48.728;9.140;2023-12-20T11:04:46;5.20;99.90
10419;DHT22;5256;48.728;9.140;2023-12-20T11:07:35;5.20;99.90
10419;DHT22;5256;48.728;9.140;2023-12-20T11:10:23;5.20;99.90
10419;DHT22;5256;48.728;9.140;2023-12-20T11:14:00;5.20;99.90
10419;DHT22;5256;48.728;9.140;2023-12-20T11:15:54;5.20;99.90
10419;DHT22;5256;48.728;9.140;2023-12-20T11:18:19;5.10;99.90
10419;DHT22;5256;48.728;9.140;2023-12-20T11:20:45;5.10;99.90
10419;DHT22;5256;48.728;9.140;2023-12-20T11:23:11;5.10;99.90
10419;DHT22;5256;48.728;9.140;2023-12-20T11:28:13;5.10;99.90
10419;DHT22;5256;48.728;9.140;2023-12-20T11:30:42;5.10;99.90
10419;DHT22;5256;48.728;9.140;2023-12-20T11:33:08;5.10;99.90
10419;DHT22;5256;48.728;9.140;2023-12-20T11:35:34;4.90;99.90
10419;DHT22;5256;48.728;9.140;2023-12-20T11:38:02;4.90;99.90
10419;DHT22;5256;48.728;9.140;2023-12-20T11:40:27;5.00;99.90
10419;DHT22;5256;48.728;9.140;2023-12-20T11:42:53;5.00;99.90
10419;DHT22;5256;48.728;9.140;2023-12-20T11:45:20;5.00;99.90
10419;DHT22;5256;48.728;9.140;2023-12-20T11:47:49;5.00;99.90
10419;DHT22;5256;48.728;9.140;2023-12-20T11:50:21;5.00;99.90
10419;DHT22;5256;48.728;9.140;2023-12-20T11:52:48;5.00;99.90
10419;DHT22;5256;48.728;9.140;2023-12-20T11:55:14;5.00;99.90
10419;DHT22;5256;48.728;9.140;2023-12-20T11:57:40;4.90;99.90
10419;DHT22;5256;48.728;9.140;2023-12-20T12:00:06;5.00;99.90
10419;DHT22;5256;48.728;9.140;2023-12-20T12:02:32;4.90;99.90
10419;DHT22;5256;48.728;9.140;2023-12-20T12:04:59;4.80;99.90
10419;DHT22;5256;48.728;9.140;2023-12-20T12:07:24;4.80;99.90
10419;DHT22;5256;48.728;9.140;2023-12-20T12:09:50;4.70;99.90
10419;DHT22;5256;48.728;9.140;2023-12-20T12:12:17;4.70;99.90
10419;DHT22;5256;48.728;9.140;2023-12-20T12:14:44;4.70;99.90
10419;DHT22;5256;48.728;9.140;2023-12-20T12:17:13;4.80;99.90
10419;DHT22;5256;48.728;9.140;2023-12-20T12:19:43;4.80;99.90
10419;DHT22;5256;48.728;9.140;2023-12-20T12:22:14;4.80;99.90
10419;DHT22;5256;48.728;9.140;2023-12-20T12:24:41;4.90;99.90
10419;DHT22;5256;48.728;9.140;2023-12-20T12:27:07;5.00;99.90
10419;DHT22;5256;48.728;9.140;2023-12-20T12:29:33;5.10;99.90
10419;DHT22;5256;48.728;9.140;2023-12-20T12:31:59;5.10;99.90
10419;DHT22;5256;48.728;9.140;2023-12-20T12:34:27;5.10;99.90
10419;DHT22;5256;48.728;9.140;2023-12-20T12:36:53;5.20;99.90
10419;DHT22;5256;48.728;9.140;2023-12-20T12:39:19;5.20;99.90
10419;DHT22;5256;48.728;9.140;2023-12-20T12:41:45;5.30;99.90
10419;DHT22;5256;48.728;9.140;2023-12-20T12:44:10;5.30;99.90
10419;DHT22;5256;48.728;9.140;2023-12-20T12:46:36;5.40;99.90
10419;DHT22;5256;48.728;9.140;2023-12-20T12:49:02;5.30;99.90
10419;DHT22;5256;48.728;9.140;2023-12-20T12:51:27;5.30;99.90
10419;DHT22;5256;48.728;9.140;2023-12-20T12:53:53;5.40;99.90
10419;DHT22;5256;48.728;9.140;2023-12-20T12:56:18;5.30;99.90
10419;DHT22;5256;48.728;9.140;2023-12-20T12:58:44;5.40;99.90
10419;DHT22;5256;48.728;9.140;2023-12-20T13:01:10;5.40;99.90
10419;DHT22;5256;48.728;9.140;2023-12-20T13:03:36;5.30;99.90
10419;DHT22;5256;48.728;9.140;2023-12-20T13:06:02;5.40;99.90
10419;DHT22;5256;48.728;9.140;2023-12-20T13:08:28;5.40;99.90
10419;DHT22;5256;48.728;9.140;2023-12-20T13:10:55;5.40;99.90
10419;DHT22;5256;48.728;9.140;2023-12-20T13:13:22;5.40;99.90
10419;DHT22;5256;48.728;9.140;2023-12-20T13:15:47;5.40;99.90
10419;DHT22;5256;48.728;9.140;2023-12-20T13:18:16;5.30;99.90
10419;DHT22;5256;48.728;9.140;2023-12-20T13:20:42;5.30;99.90
10419;DHT22;5256;48.728;9.140;2023-12-20T13:23:07;5.40;99.90
10419;DHT22;5256;48.728;9.140;2023-12-20T13:25:33;5.30;99.90
10419;DHT22;5256;48.728;9.140;2023-12-20T13:27:59;5.30;99.90
10419;DHT22;5256;48.728;9.140;2023-12-20T13:30:24;5.20;99.90
10419;DHT22;5256;48.728;9.140;2023-12-20T13:32:50;5.20;99.90
10419;DHT22;5256;48.728;9.140;2023-12-20T13:35:15;5.10;99.90
10419;DHT22;5256;48.728;9.140;2023-12-20T13:37:41;5.00;99.90
10419;DHT22;5256;48.728;9.140;2023-12-20T13:40:07;5.00;99.90
10419;DHT22;5256;48.728;9.140;2023-12-20T13:42:33;5.10;99.90
10419;DHT22;5256;48.728;9.140;2023-12-20T13:44:59;5.20;99.90
10419;DHT22;5256;48.728;9.140;2023-12-20T13:47:24;5.20;99.90
10419;DHT22;5256;48.728;9.140;2023-12-20T13:49:50;5.30;99.90
10419;DHT22;5256;48.728;9.140;2023-12-20T13:52:15;5.20;99.90
10419;DHT22;5256;48.728;9.140;2023-12-20T13:54:41;5.20;99.90
10419;DHT22;5256;48.728;9.140;2023-12-20T13:57:07;5.20;99.90
10419;DHT22;5256;48.728;9.140;2023-12-20T13:59:32;5.20;99.90
10419;DHT22;5256;48.728;9.140;2023-12-20T14:01:58;5.20;99.90
10419;DHT22;5256;48.728;9.140;2023-12-20T14:04:23;5.10;99.90
10419;DHT22;5256;48.728;9.140;2023-12-20T14:06:49;5.10;99.90
10419;DHT22;5256;48.728;9.140;2023-12-20T14:09:14;5.10;99.90
10419;DHT22;5256;48.728;9.140;2023-12-20T14:11:41;5.00;99.90
10419;DHT22;5256;48.728;9.140;2023-12-20T14:14:07;5.00;99.90
10419;DHT22;5256;48.728;9.140;2023-12-20T14:16:36;5.00;99.90
10419;DHT22;5256;48.728;9.140;2023-12-20T14:19:01;4.90;99.90
10419;DHT22;5256;48.728;9.140;2023-12-20T14:21:28;4.80;99.90
10419;DHT22;5256;48.728;9.140;2023-12-20T14:23:54;4.80;99.90
10419;DHT22;5256;48.728;9.140;2023-12-20T14:26:19;4.80;99.90
10419;DHT22;5256;48.728;9.140;2023-12-20T14:28:45;4.70;99.90
10419;DHT22;5256;48.728;9.140;2023-12-20T14:31:11;4.70;99.90
10419;DHT22;5256;48.728;9.140;2023-12-20T14:33:37;4.70;99.90
10419;DHT22;5256;48.728;9.140;2023-12-20T14:36:05;4.70;99.90
10419;DHT22;5256;48.728;9.140;2023-12-20T14:38:31;4.60;99.90
10419;DHT22;5256;48.728;9.140;2023-12-20T14:40:57;4.60;99.90
10419;DHT22;5256;48.728;9.140;2023-12-20T14:43:23;4.60;99.90
10419;DHT22;5256;48.728;9.140;2023-12-20T14:45:48;4.60;99.90
10419;DHT22;5256;48.728;9.140;2023-12-20T14:48:14;4.60;99.90
10419;DHT22;5256;48.728;9.140;2023-12-20T14:50:39;4.50;99.90
10419;DHT22;5256;48.728;9.140;2023-12-20T14:53:08;4.40;99.90
10419;DHT22;5256;48.728;9.140;2023-12-20T14:55:34;4.40;99.90
10419;DHT22;5256;48.728;9.140;2023-12-20T14:57:59;4.30;99.90
10419;DHT22;5256;48.728;9.140;2023-12-20T15:00:26;4.20;99.90
10419;DHT22;5256;48.728;9.140;2023-12-20T15:02:52;4.20;99.90
10419;DHT22;5256;48.728;9.140;2023-12-20T15:05:19;4.20;99.90
10419;DHT22;5256;48.728;9.140;2023-12-20T15:07:45;4.10;99.90
10419;DHT22;5256;48.728;9.140;2023-12-20T15:10:12;4.10;99.90
10419;DHT22;5256;48.728;9.140;2023-12-20T15:12:37;4.00;99.90
10419;DHT22;5256;48.728;9.140;2023-12-20T15:15:03;4.00;99.90
10419;DHT22;5256;48.728;9.140;2023-12-20T15:17:30;4.00;99.90
10419;DHT22;5256;48.728;9.140;2023-12-20T15:19:55;4.00;99.90
10419;DHT22;5256;48.728;9.140;2023-12-20T15:22:21;4.00;99.90
10419;DHT22;5256;48.728;9.140;2023-12-20T15:24:46;4.00;99.90
10419;DHT22;5256;48.728;9.140;2023-12-20T15:27:12;4.00;99.90
10419;DHT22;5256;48.728;9.140;2023-12-20T15:29:38;3.90;99.90
10419;DHT22;5256;48.728;9.140;2023-12-20T15:32:04;3.90;99.90
10419;DHT22;5256;48.728;9.140;2023-12-20T15:34:30;3.90;99.90
10419;DHT22;5256;48.728;9.140;2023-12-20T15:36:56;3.90;99.90
10419;DHT22;5256;48.728;9.140;2023-12-20T15:39:22;3.90;99.90
10419;DHT22;5256;48.728;9.140;2023-12-20T15:41:48;3.90;99.90
10419;DHT22;5256;48.728;9.140;2023-12-20T15:44:14;3.80;99.90
10419;DHT22;5256;48.728;9.140;2023-12-20T15:46:41;3.80;99.90
10419;DHT22;5256;48.728;9.140;2023-12-20T15:49:07;3.80;99.90
10419;DHT22;5256;48.728;9.140;2023-12-20T15:51:32;3.70;99.90
10419;DHT22;5256;48.728;9.140;2023-12-20T15:53:58;3.70;99.90
10419;DHT22;5256;48.728;9.140;2023-12-20T15:56:28;3.70;99.90
10419;DHT22;5256;48.728;9.140;2023-12-20T15:58:54;3.70;99.90